Latest Weather Observations for Maningrida Airport

IDD60801

Issued at 1:01 pm CST Sunday 25 January 2015 (issued every 30 minutes, with the page automatically refreshed every 10 minutes)

About weather observations | Map of weather stations | Latest weather observations for NT | Other Formats
Station Details ID: 014405 Name: MANINGRIDA AIRPORT Lat: -12.06 Lon: 134.23 Height: 28.1 m
Data from the previous 72 hours. | See also: Recent months at Maningrida Airport
Date/Time
CST
Temp
°C
App
Temp
°C
Dew
Point
Rel
Hum
%
Delta-T
°C
Wind Press
QNH
hPa
Press
MSL
hPa
Rain
since 9 am
mm
Dir
 
Spd
km/h
Gust
km/h
Spd
kts
Gust
kts
25/01:00pm 28.3 32.7 28.1 99 0.1 N 22 33 12 18 1007.8 1007.6 5.0
25/12:33pm 28.8 33.7 25.8 84 2.1 NE 11 17 6 9 1008.3 1008.1 4.4
25/12:30pm 28.6 33.7 26.2 87 1.7 NE 11 17 6 9 1008.3 1008.1 4.4
25/12:12pm 28.0 29.7 23.1 74 3.3 WNW 19 43 10 23 1009.1 1008.9 2.2
25/12:00pm 31.2 35.0 25.3 71 4.2 NNW 15 22 8 12 1008.9 1008.7 0.0
25/11:30am 31.3 35.4 25.2 70 4.3 WNW 13 20 7 11 1009.3 1009.1 0.0
25/11:00am 31.3 35.2 25.4 71 4.2 WNW 15 22 8 12 1009.7 1009.5 0.0
25/10:30am 30.1 33.8 25.8 78 3.1 NW 17 26 9 14 1010.1 1009.9 0.0
25/10:00am 29.6 33.4 25.3 77 3.0 WNW 15 26 8 14 1009.8 1009.6 0.0
25/09:30am 29.2 33.3 25.8 82 2.4 NW 15 24 8 13 1010.1 1009.9 0.0
25/09:00am 28.3 32.5 25.9 87 1.7 NW 15 22 8 12 1009.9 1009.7 3.0
25/08:30am 27.9 32.5 25.3 86 1.8 NW 11 20 6 11 1009.3 1009.1 3.0
25/08:00am 26.4 32.3 25.9 97 0.4 WNW 6 9 3 5 1009.1 1008.9 3.0
25/07:30am 25.6 30.7 25.6 100 0.0 NW 9 13 5 7 1008.9 1008.7 3.0
25/07:00am 25.1 30.3 25.1 100 0.0 WNW 7 9 4 5 1008.6 1008.4 3.0
25/06:30am 24.6 29.5 24.6 100 0.0 WNW 7 11 4 6 1008.8 1008.6 3.0
25/06:00am 24.6 29.4 24.4 99 0.1 WNW 7 11 4 6 1008.5 1008.3 3.0
25/05:30am 24.5 28.8 24.3 99 0.1 WNW 9 13 5 7 1008.0 1007.8 3.0
25/05:00am 24.6 28.0 24.1 97 0.3 NW 13 17 7 9 1008.3 1008.1 3.0
25/04:30am 24.8 29.1 24.3 97 0.3 WNW 9 13 5 7 1007.9 1007.7 3.0
25/04:00am 24.6 28.9 24.3 98 0.2 NW 9 17 5 9 1007.9 1007.7 3.0
25/03:30am 24.3 28.2 24.3 100 0.0 NW 11 17 6 9 1007.5 1007.3 3.0
25/03:00am 24.0 27.8 24.0 100 0.0 NW 11 15 6 8 1007.6 1007.4 3.0
25/02:30am 23.9 28.6 23.9 100 0.0 W 6 9 3 5 1007.0 1006.8 3.0
25/02:00am 24.1 28.9 24.1 100 0.0 SW 6 9 3 5 1007.1 1006.9 3.0
25/01:30am 24.1 28.7 24.1 100 0.0 WSW 7 13 4 7 1007.5 1007.3 3.0
25/01:00am 24.1 28.7 24.1 100 0.0 WSW 7 9 4 5 1008.0 1007.8 3.0
25/12:30am 24.3 29.0 24.3 100 0.0 SSW 7 11 4 6 1009.1 1008.9 3.0
25/12:00am 24.4 29.3 24.4 100 0.0 SW 6 11 3 6 1009.8 1009.6 3.0
 
Date/Time
CST
Temp
°C
App
Temp
°C
Dew
Point
Rel
Hum
%
Delta-T
°C
Wind Press
QNH
hPa
Press
MSL
hPa
Rain
since 9 am
mm
Dir
 
Spd
km/h
Gust
km/h
Spd
kts
Gust
kts
24/11:30pm 24.5 28.9 24.5 100 0.0 SSW 9 15 5 8 1010.0 1009.8 3.0
24/11:00pm 24.2 28.8 24.2 100 0.0 SSW 7 11 4 6 1010.3 1010.1 3.0
24/10:30pm 24.0 28.7 24.0 100 0.0 SSW 6 9 3 5 1010.1 1009.9 3.0
24/10:00pm 24.0 28.7 24.0 100 0.0 SW 6 9 3 5 1009.7 1009.5 3.0
24/09:30pm 24.0 28.5 24.0 100 0.0 SSW 7 13 4 7 1009.0 1008.8 3.0
24/09:00pm 24.4 29.3 24.4 100 0.0 SW 6 11 3 6 1008.5 1008.3 2.8
24/08:30pm 24.5 29.3 24.5 100 0.0 S 7 11 4 6 1008.8 1008.6 2.8
24/08:17pm 24.4 29.2 24.4 100 0.0 SW 7 13 4 7 1008.5 1008.3 2.8
24/08:00pm 24.6 28.3 24.6 100 0.0 SW 13 19 7 10 1008.4 1008.2 2.6
24/07:56pm 24.9 29.2 24.9 100 0.0 SW 11 17 6 9 1008.6 1008.4 1.2
24/07:30pm 26.3 29.8 23.6 85 1.9 WSW 11 17 6 9 1007.8 1007.6 0.0
24/07:00pm 28.4 32.3 26.0 87 1.7 NW 17 24 9 13 1007.2 1007.0 0.0
24/06:30pm 28.5 31.6 25.7 85 2.0 NW 20 30 11 16 1006.7 1006.5 0.0
24/06:00pm 28.9 32.3 25.9 84 2.1 NW 19 26 10 14 1005.9 1005.7 0.0
24/05:30pm 29.4 31.8 25.8 81 2.6 NNW 24 33 13 18 1005.3 1005.1 0.0
24/05:00pm 30.1 33.0 26.0 78 2.9 NNW 22 32 12 17 1004.9 1004.7 0.0
24/04:30pm 30.1 31.1 26.3 80 2.7 NNW 33 39 18 21 1004.6 1004.4 0.0
24/04:00pm 30.6 31.4 26.5 79 2.9 NNW 35 46 19 25 1004.6 1004.4 0.0
24/03:30pm 31.2 33.1 26.7 77 3.2 NNW 30 39 16 21 1005.1 1004.9 0.0
24/03:00pm 30.4 32.0 26.3 79 2.9 N 30 39 16 21 1005.2 1005.0 0.0
24/02:30pm 31.7 35.5 26.5 74 3.7 NW 19 30 10 16 1005.3 1005.1 0.0
24/02:00pm 33.0 37.0 25.0 63 5.7 WNW 13 20 7 11 1005.3 1005.1 0.0
24/01:30pm 31.9 35.7 24.7 65 5.1 WNW 13 19 7 10 1005.5 1005.3 0.0
24/01:00pm 32.2 37.3 25.5 67 4.8 W 9 19 5 10 1005.5 1005.3 0.0
24/12:30pm 31.2 35.5 25.5 71 4.1 WNW 13 20 7 11 1005.8 1005.6 0.0
24/12:00pm 31.4 35.6 25.3 70 4.3 WNW 13 22 7 12 1006.1 1005.9 0.0
24/11:30am 31.3 35.9 25.4 71 4.2 WNW 11 20 6 11 1007.1 1006.9 0.0
24/11:00am 30.7 34.5 25.3 73 3.8 W 15 24 8 13 1007.7 1007.5 0.0
24/10:30am 30.5 34.6 25.8 76 3.3 WNW 15 26 8 14 1007.8 1007.6 0.0
24/10:00am 29.8 33.8 25.1 76 3.3 W 13 22 7 12 1007.8 1007.6 0.0
24/09:30am 29.2 33.3 25.8 82 2.4 WNW 15 20 8 11 1007.7 1007.5 0.0
24/09:00am 28.4 32.5 25.8 86 1.8 WNW 15 24 8 13 1007.5 1007.3 8.8
24/08:30am 28.1 34.1 26.9 93 0.9 W 9 15 5 8 1007.3 1007.1 8.8
24/08:00am 27.6 32.2 26.0 91 1.1 WNW 13 19 7 10 1007.0 1006.8 8.8
24/07:30am 26.8 32.4 26.3 97 0.4 W 9 19 5 10 1006.6 1006.4 8.8
24/07:00am 26.0 31.4 26.0 100 0.0 WNW 9 15 5 8 1006.5 1006.3 8.8
24/06:30am 25.6 30.7 25.6 100 0.0 W 9 17 5 9 1005.7 1005.5 8.8
24/06:00am 25.5 30.9 25.5 100 0.0 W 7 13 4 7 1005.6 1005.4 8.8
24/05:30am 25.6 30.7 25.6 100 0.0 W 9 13 5 7 1005.3 1005.1 8.8
24/05:00am 25.7 30.9 25.7 100 0.0 W 9 13 5 7 1005.0 1004.8 8.8
24/04:30am 25.8 31.1 25.8 100 0.0 W 9 13 5 7 1005.0 1004.8 8.8
24/04:00am 25.7 31.3 25.7 100 0.0 WNW 7 13 4 7 1005.0 1004.8 8.8
24/03:30am 25.7 31.3 25.7 100 0.0 WNW 7 15 4 8 1005.2 1005.0 8.8
24/03:00am 25.5 30.9 25.5 100 0.0 WNW 7 11 4 6 1005.4 1005.2 8.8
24/02:30am 25.7 31.5 25.7 100 0.0 WNW 6 9 3 5 1005.6 1005.4 8.8
24/02:00am 26.1 31.9 26.1 100 0.0 W 7 11 4 6 1006.1 1005.9 8.8
24/01:30am 26.4 32.1 26.4 100 0.0 WNW 9 15 5 8 1006.4 1006.2 8.8
24/01:00am 26.6 32.0 26.6 100 0.0 NW 11 19 6 10 1006.4 1006.2 8.8
24/12:30am 26.1 31.9 26.1 100 0.0 NW 7 9 4 5 1006.3 1006.1 8.8
24/12:00am 25.9 32.9 25.9 100 0.0 CALM 0 0 0 0 1006.4 1006.2 8.8
 
Date/Time
CST
Temp
°C
App
Temp
°C
Dew
Point
Rel
Hum
%
Delta-T
°C
Wind Press
QNH
hPa
Press
MSL
hPa
Rain
since 9 am
mm
Dir
 
Spd
km/h
Gust
km/h
Spd
kts
Gust
kts
23/11:30pm 26.0 32.0 26.0 100 0.0 WNW 6 7 3 4 1006.5 1006.3 8.8
23/11:00pm 26.3 32.3 26.3 100 0.0 NW 7 11 4 6 1006.3 1006.1 8.8
23/10:30pm 26.0 31.8 26.0 100 0.0 NNW 7 9 4 5 1006.3 1006.1 8.8
23/10:00pm 25.9 31.8 25.9 100 0.0 NNW 6 11 3 6 1006.1 1005.9 8.8
23/09:30pm 25.9 31.2 25.9 100 0.0 NW 9 13 5 7 1006.3 1006.1 8.8
23/09:00pm 25.8 31.6 25.8 100 0.0 WNW 6 7 3 4 1006.5 1006.3 8.8
23/08:30pm 25.9 31.6 25.9 100 0.0 WNW 7 11 4 6 1006.5 1006.3 8.8
23/08:00pm 26.2 31.0 26.2 100 0.0 NW 13 19 7 10 1006.3 1006.1 8.8
23/07:30pm 26.2 30.5 25.5 96 0.5 NW 13 19 7 10 1006.2 1006.0 8.8
23/07:00pm 25.9 30.9 25.4 97 0.4 NW 9 13 5 7 1005.3 1005.1 8.8
23/06:30pm 25.9 31.1 25.7 99 0.1 WNW 9 17 5 9 1005.2 1005.0 8.8
23/06:00pm 25.8 30.5 25.6 99 0.1 WNW 11 15 6 8 1004.7 1004.5 8.8
23/05:30pm 26.0 31.6 25.7 98 0.2 W 7 11 4 6 1004.2 1004.0 8.8
23/05:00pm 26.1 32.8 25.9 99 0.1 SSW 2 9 1 5 1004.1 1003.9 8.8
23/04:30pm 26.4 33.2 25.5 95 0.6 CALM 0 6 0 3 1003.0 1002.8 8.8
23/04:00pm 26.8 31.5 25.6 93 0.8 WNW 11 15 6 8 1003.0 1002.8 8.8
23/03:30pm 26.9 31.5 24.7 88 1.5 WSW 9 17 5 9 1002.7 1002.5 8.8
23/03:00pm 26.7 31.1 24.5 88 1.5 WSW 9 17 5 9 1002.6 1002.4 8.8
23/02:30pm 26.5 31.3 26.3 99 0.1 WSW 13 22 7 12 1002.9 1002.7 8.8
23/02:00pm 25.2 29.3 25.2 100 0.0 WSW 13 20 7 11 1003.9 1003.7 8.8
23/01:30pm 24.6 29.1 24.6 100 0.0 WNW 9 17 5 9 1004.5 1004.3 8.6
23/01:00pm 23.9 28.4 23.9 100 0.0 W 7 15 4 8 1004.9 1004.7 8.4
23/12:30pm 24.2 28.1 24.2 100 0.0 W 11 20 6 11 1005.4 1005.2 7.4
23/12:00pm 24.7 29.3 24.7 100 0.0 WNW 9 15 5 8 1006.0 1005.8 6.0
23/11:30am 24.6 29.5 24.6 100 0.0 W 7 13 4 7 1005.8 1005.6 5.8
23/11:00am 24.9 28.8 24.9 100 0.0 W 13 20 7 11 1005.7 1005.5 5.8
23/10:31am 25.2 30.5 25.2 100 0.0 WSW 7 13 4 7 1005.7 1005.5 5.8
23/10:30am 25.2 30.5 25.2 100 0.0 WSW 7 13 4 7 1005.7 1005.5 5.8
23/10:00am 24.9 28.1 24.9 100 0.0 SW 17 35 9 19 1006.8 1006.6 1.4
23/09:30am 27.8 33.3 26.7 94 0.8 SW 11 19 6 10 1006.0 1005.8 0.0
23/09:00am 27.3 33.2 27.3 100 0.0 WSW 11 19 6 10 1006.0 1005.8 18.8
23/08:30am 27.4 33.3 26.7 96 0.5 WSW 9 15 5 8 1006.3 1006.1 18.6
23/08:00am 27.5 33.2 26.4 94 0.8 WNW 9 13 5 7 1005.4 1005.2 18.6
23/07:30am 27.2 34.1 26.9 98 0.2 W 4 9 2 5 1005.0 1004.8 18.6
23/07:00am 27.1 32.5 27.1 100 0.0 NW 13 19 7 10 1004.2 1004.0 18.6
23/06:30am 27.0 31.9 27.0 100 0.0 NW 15 26 8 14 1004.4 1004.2 18.6
23/06:00am 26.9 32.1 26.9 100 0.0 NW 13 19 7 10 1004.2 1004.0 18.6
23/05:30am 26.9 32.9 26.9 100 0.0 NW 9 17 5 9 1004.1 1003.9 18.6
23/05:00am 27.0 33.1 27.0 100 0.0 WNW 9 13 5 7 1003.8 1003.6 18.6
23/04:30am 26.9 33.3 26.9 100 0.0 W 7 11 4 6 1004.0 1003.8 18.6
23/04:00am 27.0 33.4 27.0 100 0.0 W 7 11 4 6 1003.9 1003.7 18.6
23/03:30am 27.0 33.1 27.0 100 0.0 W 9 15 5 8 1004.1 1003.9 18.6
23/03:00am 27.0 33.4 27.0 100 0.0 WNW 7 13 4 7 1004.3 1004.1 18.6
23/02:30am 27.2 33.0 27.2 100 0.0 WNW 11 20 6 11 1004.6 1004.4 18.6
23/02:00am 27.3 33.0 27.1 99 0.1 WNW 11 17 6 9 1004.5 1004.3 18.6
23/01:30am 27.4 32.8 27.1 98 0.2 WNW 13 20 7 11 1004.8 1004.6 18.6
23/01:00am 27.2 33.0 27.2 100 0.0 WNW 11 19 6 10 1005.3 1005.1 18.6
23/12:30am 26.9 31.4 26.9 100 0.0 WNW 17 26 9 14 1005.1 1004.9 18.6
23/12:00am 26.3 30.7 26.3 100 0.0 WNW 15 22 8 12 1004.8 1004.6 18.6
 
Date/Time
CST
Temp
°C
App
Temp
°C
Dew
Point
Rel
Hum
%
Delta-T
°C
Wind Press
QNH
hPa
Press
MSL
hPa
Rain
since 9 am
mm
Dir
 
Spd
km/h
Gust
km/h
Spd
kts
Gust
kts
22/11:30pm 26.2 31.3 26.2 100 0.0 W 11 17 6 9 1005.5 1005.3 18.6
22/11:00pm 26.2 31.3 26.2 100 0.0 W 11 17 6 9 1006.0 1005.8 18.6
22/10:30pm 26.3 32.3 26.3 100 0.0 W 7 13 4 7 1005.8 1005.6 18.6
22/10:00pm 26.2 32.1 26.2 100 0.0 W 7 11 4 6 1006.3 1006.1 18.6
22/09:30pm 26.2 31.3 25.5 96 0.5 WNW 9 13 5 7 1006.1 1005.9 18.6
22/09:00pm 26.0 30.4 25.0 94 0.7 WNW 11 20 6 11 1005.6 1005.4 18.6
22/08:30pm 26.0 30.0 25.1 95 0.6 W 13 26 7 14 1005.3 1005.1 18.6
22/08:00pm 25.8 30.9 25.6 99 0.1 W 9 20 5 11 1004.8 1004.6 18.6
22/07:30pm 26.1 30.3 25.9 99 0.1 WNW 15 24 8 13 1004.5 1004.3 18.6
22/07:15pm 26.0 29.3 26.0 100 0.0 WNW 20 37 11 20 1004.8 1004.6 18.6
22/07:00pm 26.2 29.6 26.2 100 0.0 WNW 20 35 11 19 1004.9 1004.7 18.4
22/06:45pm 26.2 29.6 26.2 100 0.0 WNW 20 35 11 19 1004.6 1004.4 15.8
22/06:30pm 27.4 30.7 27.1 98 0.2 NW 24 46 13 25 1004.1 1003.9 15.0
22/06:00pm 27.6 33.3 27.6 100 0.0 NW 13 22 7 12 1004.2 1004.0 14.6
22/05:30pm 26.9 33.3 26.9 100 0.0 NNW 7 11 4 6 1004.0 1003.8 14.6
22/05:00pm 25.9 32.9 25.9 100 0.0 CALM 0 2 0 1 1004.2 1004.0 14.6
22/04:30pm 25.4 31.3 25.4 100 0.0 S 4 7 2 4 1003.7 1003.5 14.6
22/04:00pm 25.4 31.3 25.4 100 0.0 W 4 7 2 4 1003.4 1003.2 14.2
22/03:30pm 24.3 28.2 24.3 100 0.0 W 11 19 6 10 1003.3 1003.1 13.0
22/03:12pm 24.4 28.0 24.4 100 0.0 W 13 28 7 15 1003.9 1003.7 12.4
22/03:00pm 24.4 27.3 24.4 100 0.0 WNW 17 26 9 14 1004.4 1004.2 12.0
22/02:30pm 24.8 27.9 24.8 100 0.0 W 17 28 9 15 1004.7 1004.5 7.6
22/02:22pm 25.5 29.0 25.5 100 0.0 WNW 17 28 9 15 1004.6 1004.4 7.0
22/02:21pm 25.7 29.4 25.7 100 0.0 WNW 17 28 9 15 1004.6 1004.4 6.8
22/02:00pm 26.3 28.7 25.8 97 0.4 NNW 24 39 13 21 1004.1 1003.9 4.6
22/01:30pm 26.3 29.8 26.3 100 0.0 NW 20 30 11 16 1004.7 1004.5 2.2
22/01:11pm 27.5 31.7 27.3 99 0.1 NNW 20 43 11 23 1004.5 1004.3 2.0

Other Formats:

Comma delimited format used in spreadsheet applications
http://www.bom.gov.au/fwo/IDD60801/IDD60801.95142.axf

JavaScript Object Notation format (JSON) in row-major order
http://www.bom.gov.au/fwo/IDD60801/IDD60801.95142.json